createdAt,value
2022-09-07T00:00:22.609Z,0.88
2022-09-07T00:02:54.514Z,1.10
2022-09-07T00:05:26.140Z,0.93
2022-09-07T00:07:58.022Z,0.90
2022-09-07T00:10:29.514Z,0.55
2022-09-07T00:13:01.482Z,0.85
2022-09-07T00:15:33.001Z,0.88
2022-09-07T00:18:04.521Z,0.80
2022-09-07T00:20:36.079Z,0.82
2022-09-07T00:23:07.864Z,0.73
2022-09-07T00:25:39.596Z,0.80
2022-09-07T00:28:11.515Z,0.80
2022-09-07T00:30:43.484Z,0.90
2022-09-07T00:33:14.980Z,0.75
2022-09-07T00:35:46.984Z,0.90
2022-09-07T00:38:18.504Z,0.85
2022-09-07T00:40:50.390Z,0.68
2022-09-07T00:43:21.968Z,0.80
2022-09-07T00:45:53.972Z,0.52
2022-09-07T00:48:25.475Z,0.57
2022-09-07T00:50:57.416Z,0.70
2022-09-07T00:53:28.922Z,0.70
2022-09-07T00:56:00.803Z,0.73
2022-09-07T00:58:32.415Z,0.68
2022-09-07T01:01:03.932Z,0.70
2022-09-07T01:03:35.444Z,1.05
2022-09-07T01:06:07.371Z,0.70
2022-09-07T01:08:38.868Z,0.98
2022-09-07T01:11:10.762Z,0.68
2022-09-07T01:13:42.250Z,0.65
2022-09-07T01:16:14.260Z,0.75
2022-09-07T01:18:45.805Z,0.87
2022-09-07T01:21:17.630Z,0.80
2022-09-07T01:23:49.127Z,0.88
2022-09-07T01:26:21.201Z,1.00
2022-09-07T01:28:52.714Z,0.93
2022-09-07T01:31:24.596Z,0.73
2022-09-07T01:33:56.271Z,0.63
2022-09-07T01:36:28.199Z,0.57
2022-09-07T01:38:59.710Z,0.75
2022-09-07T01:41:31.564Z,0.80
2022-09-07T01:44:03.128Z,0.82
2022-09-07T01:46:34.994Z,0.80
2022-09-07T01:49:06.559Z,0.93
2022-09-07T01:51:38.460Z,1.35
2022-09-07T01:54:09.965Z,0.70
2022-09-07T01:56:41.845Z,1.02
2022-09-07T01:59:13.346Z,0.70
2022-09-07T02:01:45.315Z,0.60
2022-09-07T02:04:16.916Z,0.70
2022-09-07T02:06:48.605Z,0.50
2022-09-07T02:09:20.195Z,0.85
2022-09-07T02:11:51.984Z,0.50
2022-09-07T02:14:23.491Z,0.60
2022-09-07T02:16:55.459Z,0.55
2022-09-07T02:19:26.960Z,0.57
2022-09-07T02:21:58.794Z,0.68
2022-09-07T02:24:31.112Z,1.13
2022-09-07T02:27:02.922Z,0.65
2022-09-07T02:29:34.472Z,0.75
2022-09-07T02:32:06.308Z,0.80
2022-09-07T02:34:37.814Z,0.63
2022-09-07T02:37:09.627Z,0.70
2022-09-07T02:39:41.229Z,0.70
2022-09-07T02:42:13.140Z,0.60
2022-09-07T02:44:46.479Z,0.70
2022-09-07T02:47:18.340Z,0.75
2022-09-07T02:49:50.246Z,0.60
2022-09-07T02:52:21.741Z,0.88
2022-09-07T02:54:53.663Z,0.80
2022-09-07T02:57:25.156Z,0.60
2022-09-07T02:59:57.032Z,0.98
2022-09-07T03:02:28.641Z,0.73
2022-09-07T03:05:00.483Z,0.70
2022-09-07T03:07:34.613Z,0.50
2022-09-07T03:10:07.858Z,0.80
2022-09-07T03:12:39.752Z,0.68
2022-09-07T03:15:11.869Z,0.88
2022-09-07T03:17:43.412Z,0.70
2022-09-07T03:20:16.803Z,0.80
2022-09-07T03:22:48.290Z,0.73
2022-09-07T03:25:19.831Z,0.75
2022-09-07T03:27:51.364Z,0.68
2022-09-07T03:30:24.168Z,0.50
2022-09-07T03:32:55.665Z,0.90
2022-09-07T03:35:27.498Z,1.52
2022-09-07T03:37:59.016Z,0.73
2022-09-07T03:40:30.885Z,0.80
2022-09-07T03:43:02.482Z,0.88
2022-09-07T03:45:34.424Z,0.68
2022-09-07T03:48:05.945Z,0.90
2022-09-07T03:50:37.891Z,1.20
2022-09-07T03:53:09.390Z,1.05
2022-09-07T03:55:41.270Z,0.70
2022-09-07T03:58:12.853Z,0.75
2022-09-07T04:00:44.757Z,0.80
2022-09-07T04:03:16.243Z,0.68
2022-09-07T04:05:48.055Z,0.85
2022-09-07T04:08:19.546Z,0.60
2022-09-07T04:10:51.336Z,0.90
2022-09-07T04:13:22.854Z,0.70
2022-09-07T04:15:54.665Z,0.80
2022-09-07T04:18:26.179Z,0.70
2022-09-07T04:20:58.025Z,0.70
2022-09-07T04:23:30.010Z,0.70
2022-09-07T04:26:01.556Z,0.75
2022-09-07T04:28:33.053Z,1.00
2022-09-07T04:31:05.116Z,0.80
2022-09-07T04:33:36.815Z,0.90
2022-09-07T04:36:08.652Z,0.70
2022-09-07T04:38:40.212Z,1.08
2022-09-07T04:41:12.115Z,0.70
2022-09-07T04:43:43.614Z,0.60
2022-09-07T04:46:15.474Z,0.82
2022-09-07T04:48:47.353Z,1.10
2022-09-07T04:51:18.877Z,0.70
2022-09-07T04:53:50.902Z,0.77
2022-09-07T04:56:22.481Z,0.68
2022-09-07T04:58:54.606Z,0.98
2022-09-07T05:01:26.335Z,0.70
2022-09-07T05:03:58.299Z,1.02
2022-09-07T05:06:30.055Z,0.80
2022-09-07T05:09:02.152Z,0.80
2022-09-07T05:11:33.697Z,1.10
2022-09-07T05:14:05.636Z,1.00
2022-09-07T05:16:37.230Z,0.80
2022-09-07T05:19:09.438Z,1.00
2022-09-07T05:21:40.982Z,0.90
2022-09-07T05:24:12.878Z,0.98
2022-09-07T05:26:44.432Z,0.68
2022-09-07T05:32:08.245Z,0.63
2022-09-07T05:34:40.116Z,1.02
2022-09-07T05:37:11.712Z,0.90
2022-09-07T05:39:44.397Z,0.93
2022-09-07T05:42:16.059Z,0.90
2022-09-07T05:44:48.149Z,0.90
2022-09-07T05:47:19.726Z,1.00
2022-09-07T05:49:53.000Z,1.10
2022-09-07T05:52:28.774Z,1.15
2022-09-07T05:55:19.280Z,1.02
2022-09-07T05:57:52.538Z,1.10
2022-09-07T06:00:24.251Z,0.88
2022-09-07T06:02:56.389Z,1.20
2022-09-07T06:05:27.931Z,1.00
2022-09-07T06:07:59.755Z,1.42
2022-09-07T06:10:47.375Z,1.00
2022-09-07T06:13:19.425Z,0.93
2022-09-07T06:15:50.996Z,0.93
2022-09-07T06:18:22.836Z,1.38
2022-09-07T06:20:54.409Z,0.90
2022-09-07T06:23:25.953Z,1.10
2022-09-07T06:25:57.460Z,1.33
2022-09-07T06:28:29.459Z,1.50
2022-09-07T06:31:01.065Z,1.20
2022-09-07T06:33:32.790Z,1.50
2022-09-07T06:36:04.575Z,1.08
2022-09-07T06:38:37.299Z,1.08
2022-09-07T06:44:00.639Z,1.13
2022-09-07T06:49:24.031Z,1.50
2022-09-07T06:51:55.658Z,1.50
2022-09-07T06:57:19.450Z,1.17
2022-09-07T06:59:50.991Z,1.58
2022-09-07T07:02:22.892Z,1.20
2022-09-07T07:04:54.437Z,1.63
2022-09-07T07:07:26.319Z,1.25
2022-09-07T07:09:57.842Z,1.60
2022-09-07T07:15:15.044Z,1.60
2022-09-07T07:17:51.952Z,1.40
2022-09-07T07:20:27.573Z,1.30
2022-09-07T07:22:59.434Z,1.40
2022-09-07T07:25:30.985Z,1.65
2022-09-07T07:30:54.627Z,1.40
2022-09-07T07:33:26.184Z,1.40
2022-09-07T07:35:57.725Z,1.38
2022-09-07T07:44:13.293Z,1.70
2022-09-07T07:46:45.111Z,1.52
2022-09-07T07:49:16.701Z,1.40
2022-09-07T07:54:39.729Z,1.50
2022-09-07T07:57:12.162Z,1.65
2022-09-07T07:59:43.659Z,1.73
2022-09-07T08:02:15.231Z,2.15
2022-09-07T08:04:46.848Z,1.95
2022-09-07T08:07:19.531Z,1.80
2022-09-07T08:09:51.084Z,1.48
2022-09-07T08:12:26.601Z,1.70
2022-09-07T08:15:00.726Z,1.58
2022-09-07T08:17:32.718Z,1.65
2022-09-07T08:20:04.248Z,1.90
2022-09-07T08:22:36.335Z,1.88
2022-09-07T08:25:07.838Z,2.00
2022-09-07T08:27:39.539Z,1.75
2022-09-07T08:30:11.166Z,1.65
2022-09-07T08:32:42.999Z,2.00
2022-09-07T08:35:14.494Z,1.85
2022-09-07T08:37:46.319Z,1.80
2022-09-07T08:40:17.979Z,1.88
2022-09-07T08:42:52.170Z,1.90
2022-09-07T08:45:23.682Z,1.83
2022-09-07T08:47:55.548Z,2.00
2022-09-07T08:50:28.858Z,1.85
2022-09-07T08:53:00.683Z,2.13
2022-09-07T08:55:36.064Z,2.00
2022-09-07T08:58:18.095Z,2.10
2022-09-07T09:06:43.853Z,2.00
2022-09-07T09:09:15.835Z,1.80
2022-09-07T09:11:48.510Z,2.20
2022-09-07T09:16:52.123Z,2.00
2022-09-07T09:19:23.607Z,2.15
2022-09-07T09:21:55.470Z,1.80
2022-09-07T09:24:26.965Z,2.33
2022-09-07T09:26:58.840Z,1.92
2022-09-07T09:29:30.351Z,2.65
2022-09-07T09:32:02.255Z,2.00
2022-09-07T09:34:35.186Z,2.20
2022-09-07T09:37:07.274Z,2.40
2022-09-07T09:39:39.940Z,2.40
2022-09-07T09:44:43.488Z,2.50
2022-09-07T09:47:31.182Z,2.20
2022-09-07T09:50:03.144Z,2.17
2022-09-07T09:52:45.081Z,2.53
2022-09-07T09:55:35.939Z,2.22
2022-09-07T10:06:26.343Z,2.75
2022-09-07T10:08:57.942Z,2.67
2022-09-07T10:12:05.083Z,2.72
2022-09-07T10:14:21.267Z,2.72
2022-09-07T10:16:53.106Z,2.83
2022-09-07T10:19:24.652Z,2.85
2022-09-07T10:21:56.477Z,2.53
2022-09-07T10:24:28.179Z,2.78
2022-09-07T10:27:00.028Z,2.43
2022-09-07T10:29:31.576Z,2.50
2022-09-07T10:32:03.419Z,2.90
2022-09-07T10:34:34.906Z,2.80
2022-09-07T10:37:07.180Z,3.20
2022-09-07T10:39:38.711Z,2.90
2022-09-07T10:42:10.696Z,3.35
2022-09-07T10:44:42.284Z,3.00
2022-09-07T10:47:16.842Z,2.95
2022-09-07T10:52:40.328Z,2.83
2022-09-07T10:55:11.850Z,2.70
2022-09-07T10:57:48.273Z,2.83
2022-09-07T11:00:20.564Z,2.75
2022-09-07T11:05:43.981Z,3.47
2022-09-07T11:08:15.960Z,3.15
2022-09-07T11:10:47.511Z,3.30
2022-09-07T11:13:19.543Z,3.08
2022-09-07T11:15:51.094Z,3.15
2022-09-07T11:18:23.090Z,3.17
2022-09-07T11:20:58.768Z,3.38
2022-09-07T11:23:30.717Z,3.17
2022-09-07T11:26:02.442Z,3.53
2022-09-07T11:28:34.295Z,2.93
2022-09-07T11:31:05.809Z,3.30
2022-09-07T11:33:39.298Z,3.47
2022-09-07T11:36:12.365Z,2.80
2022-09-07T11:38:44.635Z,3.33
2022-09-07T11:41:16.131Z,3.78
2022-09-07T11:43:47.998Z,3.25
2022-09-07T11:46:19.587Z,3.70
2022-09-07T11:48:51.486Z,3.33
2022-09-07T11:51:23.457Z,3.30
2022-09-07T11:53:54.986Z,3.10
2022-09-07T11:56:26.762Z,3.33
2022-09-07T11:58:58.260Z,3.10
2022-09-07T12:01:30.240Z,2.92
2022-09-07T12:04:02.148Z,3.10
2022-09-07T12:06:34.164Z,3.15
2022-09-07T12:09:05.661Z,3.05
2022-09-07T12:11:37.622Z,3.35
2022-09-07T12:14:09.177Z,3.85
2022-09-07T12:16:41.086Z,2.83
2022-09-07T12:19:12.846Z,3.40
2022-09-07T12:21:44.772Z,3.05
2022-09-07T12:24:16.258Z,3.20
2022-09-07T12:26:48.173Z,3.17
2022-09-07T12:29:19.994Z,3.33
2022-09-07T12:32:07.407Z,2.75
2022-09-07T12:34:43.259Z,3.25
2022-09-07T12:37:15.046Z,2.78
2022-09-07T12:39:46.635Z,3.20
2022-09-07T12:42:34.329Z,3.47
2022-09-07T12:45:08.397Z,3.17
2022-09-07T12:47:40.204Z,3.17
2022-09-07T12:50:11.757Z,3.60
2022-09-07T12:52:45.590Z,3.10
2022-09-07T12:55:27.854Z,3.42
2022-09-07T12:58:00.499Z,3.50
2022-09-07T13:00:31.989Z,3.08
2022-09-07T13:03:04.216Z,2.97
2022-09-07T13:05:35.915Z,3.40
2022-09-07T13:08:09.365Z,3.22
2022-09-07T13:10:41.092Z,3.63
2022-09-07T13:13:13.364Z,3.53
2022-09-07T13:15:45.379Z,3.20
2022-09-07T13:18:18.769Z,2.88
2022-09-07T13:20:50.643Z,3.17
2022-09-07T13:23:22.158Z,3.50
2022-09-07T13:25:53.977Z,3.33
2022-09-07T13:28:25.480Z,3.20
2022-09-07T13:30:57.436Z,3.03
2022-09-07T13:33:29.011Z,3.38
2022-09-07T13:36:00.927Z,3.20
2022-09-07T13:38:32.412Z,3.13
2022-09-07T13:41:04.374Z,2.95
2022-09-07T13:43:35.872Z,3.45
2022-09-07T13:46:07.874Z,3.65
2022-09-07T13:48:40.865Z,2.65
2022-09-07T13:51:13.676Z,3.53
2022-09-07T13:53:45.183Z,3.10
2022-09-07T13:56:17.102Z,3.47
2022-09-07T13:58:48.587Z,3.05
2022-09-07T14:01:20.509Z,3.13
2022-09-07T14:03:52.019Z,3.40
2022-09-07T14:06:25.827Z,3.27
2022-09-07T14:08:57.324Z,3.15
2022-09-07T14:11:29.013Z,3.13
2022-09-07T14:14:00.510Z,3.80
2022-09-07T14:16:32.578Z,3.00
2022-09-07T14:19:04.084Z,3.47
2022-09-07T14:21:36.026Z,3.20
2022-09-07T14:24:07.523Z,3.38
2022-09-07T14:26:39.490Z,3.25
2022-09-07T14:29:10.988Z,3.33
2022-09-07T14:31:42.843Z,3.30
2022-09-07T14:34:15.646Z,2.70
2022-09-07T14:36:47.144Z,3.20
2022-09-07T14:39:19.322Z,3.10
2022-09-07T14:41:51.087Z,3.05
2022-09-07T14:44:22.932Z,3.17
2022-09-07T14:46:56.832Z,3.30
2022-09-07T14:49:29.268Z,3.40
2022-09-07T14:52:01.860Z,3.50
2022-09-07T14:57:05.868Z,3.60
2022-09-07T14:59:37.674Z,3.97
2022-09-07T15:02:09.183Z,3.10
2022-09-07T15:04:41.049Z,3.17
2022-09-07T15:07:12.537Z,3.58
2022-09-07T15:09:44.372Z,3.05
2022-09-07T15:12:15.858Z,3.15
2022-09-07T15:14:47.991Z,3.40
2022-09-07T15:20:11.463Z,3.03
2022-09-07T15:22:42.955Z,3.45
2022-09-07T15:25:15.064Z,3.20
2022-09-07T15:27:46.806Z,3.20
2022-09-07T15:30:18.642Z,2.97
2022-09-07T15:32:50.193Z,3.47
2022-09-07T15:35:22.161Z,2.92
2022-09-07T15:38:02.455Z,3.03
2022-09-07T15:40:36.224Z,3.35
2022-09-07T15:43:19.890Z,3.40
2022-09-07T15:45:53.189Z,3.20
2022-09-07T15:48:27.816Z,2.75
2022-09-07T15:50:59.811Z,2.53
2022-09-07T15:56:23.471Z,2.75
2022-09-07T15:58:54.965Z,3.10
2022-09-07T16:04:18.596Z,2.75
2022-09-07T16:06:50.193Z,2.80
2022-09-07T16:09:23.045Z,3.00
2022-09-07T16:11:54.782Z,2.30
2022-09-07T16:14:26.757Z,2.78
2022-09-07T16:19:50.088Z,2.72
2022-09-07T16:25:13.458Z,2.47
2022-09-07T16:27:44.962Z,2.67
2022-09-07T16:30:16.747Z,2.80
2022-09-07T16:32:50.749Z,2.53
2022-09-07T16:35:23.703Z,2.80
2022-09-07T16:40:48.475Z,2.70
2022-09-07T16:43:20.039Z,2.63
2022-09-07T16:46:07.075Z,2.92
2022-09-07T16:48:38.571Z,3.00
2022-09-07T16:51:10.369Z,2.47
2022-09-07T16:53:41.849Z,2.97
2022-09-07T16:56:13.806Z,2.80
2022-09-07T16:58:45.695Z,2.78
2022-09-07T17:01:17.338Z,2.78
2022-09-07T17:03:49.856Z,2.35
2022-09-07T17:06:21.432Z,2.60
2022-09-07T17:08:52.960Z,2.35
2022-09-07T17:11:24.508Z,2.92
2022-09-07T17:13:56.024Z,2.55
2022-09-07T17:16:27.623Z,2.53
2022-09-07T17:21:55.531Z,2.17
2022-09-07T17:24:31.908Z,1.40
2022-09-07T17:27:03.887Z,1.17
2022-09-07T17:29:38.709Z,1.20
2022-09-07T17:32:25.977Z,1.00
2022-09-07T17:34:58.414Z,0.95
2022-09-07T17:37:29.904Z,1.02
2022-09-07T17:40:05.270Z,0.80
2022-09-07T17:45:29.282Z,0.80
2022-09-07T17:48:00.831Z,0.70
2022-09-07T17:50:32.704Z,0.85
2022-09-07T17:53:04.485Z,0.90
2022-09-07T17:55:36.033Z,1.30
2022-09-07T17:58:08.013Z,1.25
2022-09-07T18:00:40.139Z,1.20
2022-09-07T18:03:13.278Z,1.05
2022-09-07T18:05:44.845Z,1.23
2022-09-07T18:08:16.698Z,1.52
2022-09-07T18:13:40.225Z,1.65
2022-09-07T18:16:11.981Z,1.17
2022-09-07T18:18:43.964Z,1.63
2022-09-07T18:21:15.447Z,1.52
2022-09-07T18:23:48.553Z,2.00
2022-09-07T18:26:20.329Z,2.50
2022-09-07T18:29:18.730Z,2.40
2022-09-07T18:31:43.393Z,1.85
2022-09-07T18:34:15.210Z,1.80
2022-09-07T18:36:46.758Z,2.10
2022-09-07T18:39:18.615Z,1.90
2022-09-07T18:41:50.120Z,1.88
2022-09-07T18:47:21.140Z,1.85
2022-09-07T18:49:55.047Z,2.00
2022-09-07T18:55:18.616Z,2.33
2022-09-07T18:57:50.419Z,1.90
2022-09-07T19:00:21.940Z,2.03
2022-09-07T19:02:53.836Z,2.13
2022-09-07T19:08:17.484Z,2.13
2022-09-07T19:10:48.959Z,2.45
2022-09-07T19:13:20.780Z,2.47
2022-09-07T19:15:52.270Z,2.22
2022-09-07T19:18:24.117Z,2.17
2022-09-07T19:20:55.614Z,2.70
2022-09-07T19:23:27.670Z,2.25
2022-09-07T19:25:59.280Z,2.30
2022-09-07T19:28:31.299Z,2.30
2022-09-07T19:31:03.482Z,2.23
2022-09-07T19:33:38.292Z,2.28
2022-09-07T19:36:09.873Z,2.17
2022-09-07T19:38:41.765Z,2.17
2022-09-07T19:41:15.963Z,2.42
2022-09-07T19:43:47.504Z,2.50
2022-09-07T19:46:24.177Z,2.13
2022-09-07T19:48:56.859Z,2.58
2022-09-07T19:51:28.632Z,2.30
2022-09-07T19:54:00.428Z,2.83
2022-09-07T19:56:31.929Z,2.38
2022-09-07T19:59:03.781Z,2.05
2022-09-07T20:01:35.362Z,2.70
2022-09-07T20:04:06.977Z,2.47
2022-09-07T20:06:38.649Z,2.00
2022-09-07T20:09:10.519Z,2.20
2022-09-07T20:11:46.243Z,2.30
2022-09-07T20:14:19.403Z,2.15
2022-09-07T20:16:51.032Z,2.28
2022-09-07T20:19:22.837Z,2.15
2022-09-07T20:21:55.771Z,2.35
2022-09-07T20:26:59.190Z,2.10
2022-09-07T20:29:31.877Z,2.67
2022-09-07T20:32:03.484Z,2.33
2022-09-07T20:34:35.396Z,2.35
2022-09-07T20:37:06.950Z,2.30
2022-09-07T20:39:39.500Z,2.17
2022-09-07T20:42:11.283Z,2.55
2022-09-07T20:44:42.857Z,2.20
2022-09-07T20:47:14.371Z,2.35
2022-09-07T20:49:46.177Z,2.65
2022-09-07T20:52:17.723Z,2.80
2022-09-07T20:54:49.254Z,2.03
2022-09-07T20:57:20.770Z,2.40
2022-09-07T20:59:52.939Z,2.88
2022-09-07T21:02:24.532Z,2.53
2022-09-07T21:04:56.494Z,2.42
2022-09-07T21:07:27.987Z,2.90
2022-09-07T21:10:02.297Z,2.17
2022-09-07T21:12:37.503Z,2.75
2022-09-07T21:15:09.098Z,2.95
2022-09-07T21:17:40.596Z,2.28
2022-09-07T21:20:12.200Z,2.33
2022-09-07T21:22:43.721Z,2.55
2022-09-07T21:25:15.508Z,2.72
2022-09-07T21:27:47.359Z,2.72
2022-09-07T21:30:18.888Z,2.25
2022-09-07T21:32:51.059Z,2.42
2022-09-07T21:35:22.763Z,2.47
2022-09-07T21:37:54.253Z,2.83
2022-09-07T21:40:26.108Z,2.42
2022-09-07T21:42:57.970Z,2.00
2022-09-07T21:45:29.532Z,2.20
2022-09-07T21:48:01.381Z,2.05
2022-09-07T21:50:32.930Z,2.08
2022-09-07T21:53:04.822Z,2.80
2022-09-07T21:55:36.323Z,2.10
2022-09-07T21:58:08.194Z,2.85
2022-09-07T22:00:39.709Z,2.70
2022-09-07T22:03:11.573Z,2.40
2022-09-07T22:05:43.092Z,2.88
2022-09-07T22:08:14.656Z,2.63
2022-09-07T22:10:46.538Z,2.58
2022-09-07T22:13:18.375Z,2.20
2022-09-07T22:15:49.917Z,2.28
2022-09-07T22:18:21.857Z,2.08
2022-09-07T22:20:53.603Z,2.38
2022-09-07T22:23:25.409Z,2.08
2022-09-07T22:25:56.927Z,1.98
2022-09-07T22:28:28.854Z,2.70
2022-09-07T22:31:00.383Z,2.15
2022-09-07T22:33:32.530Z,2.22
2022-09-07T22:36:05.272Z,2.47
2022-09-07T22:38:38.552Z,1.58
2022-09-07T22:41:10.053Z,1.65
2022-09-07T22:43:43.030Z,2.00
2022-09-07T22:48:46.811Z,1.98
2022-09-07T22:51:18.301Z,1.98
2022-09-07T22:53:50.112Z,2.25
2022-09-07T22:56:21.772Z,2.38
2022-09-07T22:58:53.605Z,1.85
2022-09-07T23:01:25.084Z,2.00
2022-09-07T23:03:56.892Z,1.52
2022-09-07T23:06:28.458Z,2.22
2022-09-07T23:09:00.343Z,1.60
2022-09-07T23:11:31.885Z,1.70
2022-09-07T23:14:03.745Z,1.67
2022-09-07T23:16:35.331Z,1.80
2022-09-07T23:19:07.305Z,1.85
2022-09-07T23:21:38.909Z,2.17
2022-09-07T23:24:10.760Z,1.50
2022-09-07T23:26:42.292Z,2.25
2022-09-07T23:29:14.272Z,2.00
2022-09-07T23:31:46.573Z,1.60
2022-09-07T23:34:18.119Z,2.10
2022-09-07T23:36:49.648Z,1.90
2022-09-07T23:39:21.155Z,1.60
2022-09-07T23:41:52.954Z,1.90
2022-09-07T23:44:24.442Z,1.73
2022-09-07T23:46:56.255Z,1.80
2022-09-07T23:49:27.807Z,1.85
2022-09-07T23:51:59.675Z,1.42
2022-09-07T23:54:31.232Z,1.80
2022-09-07T23:57:03.048Z,1.80
2022-09-07T23:59:34.524Z,1.83
